createdAt,value
2019-05-26T00:01:36.073Z,100470.66
2019-05-26T00:04:08.316Z,100473.23
2019-05-26T00:06:39.874Z,100476.48
2019-05-26T00:09:11.805Z,100475.79
2019-05-26T00:11:43.400Z,100485.33
2019-05-26T00:14:15.301Z,100478.86
2019-05-26T00:16:47.293Z,100477.16
2019-05-26T00:19:19.009Z,100474.59
2019-05-26T00:22:23.309Z,100472.71
2019-05-26T00:24:55.310Z,100466.94
2019-05-26T00:27:28.301Z,100465.61
2019-05-26T00:30:00.058Z,100459.55
2019-05-26T00:32:31.718Z,100465.61
2019-05-26T00:35:02.520Z,100455.28
2019-05-26T00:37:48.334Z,100452.46
2019-05-26T00:40:08.374Z,100457.20
2019-05-26T00:42:40.015Z,100463.66
2019-05-26T00:45:12.306Z,100457.22
2019-05-26T00:47:43.831Z,100451.10
2019-05-26T00:50:15.760Z,100451.23
2019-05-26T00:52:47.370Z,100453.25
2019-05-26T00:55:19.067Z,100457.36
2019-05-26T00:57:50.757Z,100459.55
2019-05-26T01:00:40.755Z,100458.56
2019-05-26T01:03:11.773Z,100451.59
2019-05-26T01:05:43.483Z,100454.31
2019-05-26T01:08:15.302Z,100453.66
2019-05-26T01:10:46.828Z,100455.02
2019-05-26T01:13:18.631Z,100451.96
2019-05-26T01:15:50.390Z,100456.67
2019-05-26T01:18:22.315Z,100456.67
2019-05-26T01:20:53.874Z,100451.98
2019-05-26T01:23:25.511Z,100455.08
2019-05-26T01:25:57.313Z,100445.75
2019-05-26T01:28:28.889Z,100443.52
2019-05-26T01:31:00.743Z,100440.10
2019-05-26T01:33:31.450Z,100437.90
2019-05-26T01:36:03.299Z,100436.16
2019-05-26T01:38:35.427Z,100442.36
2019-05-26T01:41:07.070Z,100437.43
2019-05-26T01:43:38.781Z,100434.19
2019-05-26T01:46:09.633Z,100433.81
2019-05-26T01:48:41.391Z,100432.77
2019-05-26T01:51:13.049Z,100432.77
2019-05-26T01:53:44.770Z,100434.33
2019-05-26T01:56:15.459Z,100436.91
2019-05-26T01:58:47.297Z,100438.80
2019-05-26T02:01:18.854Z,100439.48
2019-05-26T02:03:50.436Z,100435.17
2019-05-26T02:06:22.558Z,100441.17
2019-05-26T02:08:54.305Z,100436.63
2019-05-26T02:11:26.301Z,100436.63
2019-05-26T02:13:57.711Z,100430.64
2019-05-26T02:16:28.480Z,100425.94
2019-05-26T02:19:00.304Z,100426.31
2019-05-26T02:21:31.864Z,100426.50
2019-05-26T02:24:03.733Z,100418.84
2019-05-26T02:26:34.863Z,100419.97
2019-05-26T02:29:06.387Z,100422.67
2019-05-26T02:31:38.401Z,100413.78
2019-05-26T02:34:10.292Z,100421.26
2019-05-26T02:36:41.840Z,100411.11
2019-05-26T02:39:13.467Z,100407.03
2019-05-26T02:41:45.611Z,100409.90
2019-05-26T02:44:17.369Z,100396.75
2019-05-26T02:46:49.018Z,100396.75
2019-05-26T02:49:20.744Z,100399.92
2019-05-26T02:51:51.446Z,100399.03
2019-05-26T02:54:23.308Z,100394.42
2019-05-26T02:56:54.819Z,100399.95
2019-05-26T02:59:26.820Z,100407.10
2019-05-26T03:02:03.633Z,100408.95
2019-05-26T03:04:32.308Z,100408.80
2019-05-26T03:07:03.955Z,100408.31
2019-05-26T03:09:36.343Z,100403.88
2019-05-26T03:12:08.297Z,100409.67
2019-05-26T03:14:39.863Z,100407.13
2019-05-26T03:17:11.752Z,100405.07
2019-05-26T03:19:42.620Z,100409.53
2019-05-26T03:22:14.372Z,100395.98
2019-05-26T03:24:46.070Z,100395.98
2019-05-26T03:27:17.774Z,100403.41
2019-05-26T03:29:48.459Z,100401.92
2019-05-26T03:32:20.376Z,100409.94
2019-05-26T03:34:52.067Z,100401.12
2019-05-26T03:37:23.842Z,100398.19
2019-05-26T03:39:55.395Z,100403.21
2019-05-26T03:42:27.023Z,100403.36
2019-05-26T03:44:58.775Z,100403.03
2019-05-26T03:47:29.481Z,100408.11
2019-05-26T03:50:01.497Z,100408.02
2019-05-26T03:52:33.301Z,100408.70
2019-05-26T03:55:05.299Z,100409.38
2019-05-26T03:57:37.265Z,100403.31
2019-05-26T04:00:08.946Z,100408.03
2019-05-26T04:02:40.774Z,100403.86
2019-05-26T04:05:11.468Z,100402.72
2019-05-26T04:07:43.304Z,100405.74
2019-05-26T04:10:15.752Z,100406.43
2019-05-26T04:12:46.481Z,100409.83
2019-05-26T04:15:18.696Z,100402.05
2019-05-26T04:17:49.454Z,100398.56
2019-05-26T04:20:21.024Z,100396.14
2019-05-26T04:22:52.786Z,100393.20
2019-05-26T04:25:24.354Z,100394.55
2019-05-26T04:27:56.023Z,100399.53
2019-05-26T04:30:27.889Z,100401.08
2019-05-26T04:32:59.783Z,100399.17
2019-05-26T04:35:30.465Z,100405.61
2019-05-26T04:38:02.261Z,100410.59
2019-05-26T04:40:33.826Z,100414.97
2019-05-26T04:43:05.432Z,100415.34
2019-05-26T04:45:37.379Z,100414.16
2019-05-26T04:48:09.062Z,100414.97
2019-05-26T04:50:40.742Z,100409.38
2019-05-26T04:53:11.489Z,100411.43
2019-05-26T04:55:43.307Z,100411.05
2019-05-26T04:58:14.877Z,100411.73
2019-05-26T05:00:46.785Z,100417.30
2019-05-26T05:03:18.408Z,100415.21
2019-05-26T05:05:50.402Z,100418.83
2019-05-26T05:08:22.339Z,100419.42
2019-05-26T05:10:54.010Z,100414.59
2019-05-26T05:13:25.793Z,100413.08
2019-05-26T05:15:57.577Z,100412.53
2019-05-26T05:18:29.301Z,100403.86
2019-05-26T05:21:00.833Z,100403.86
2019-05-26T05:23:32.384Z,100410.18
2019-05-26T05:26:04.044Z,100409.31
2019-05-26T05:28:36.049Z,100399.89
2019-05-26T05:31:07.741Z,100400.03
2019-05-26T05:33:38.819Z,100398.84
2019-05-26T05:36:10.733Z,100398.84
2019-05-26T05:38:41.881Z,100395.05
2019-05-26T05:43:00.307Z,100398.45
2019-05-26T05:45:31.842Z,100400.97
2019-05-26T05:48:03.836Z,100395.77
2019-05-26T05:50:38.918Z,100398.14
2019-05-26T05:53:09.057Z,100397.41
2019-05-26T05:55:40.769Z,100391.56
2019-05-26T05:58:11.537Z,100397.20
2019-05-26T06:00:45.449Z,100392.02
2019-05-26T06:03:18.813Z,100392.02
2019-05-26T06:05:50.400Z,100395.55
2019-05-26T06:08:22.079Z,100383.66
2019-05-26T06:10:53.746Z,100386.95
2019-05-26T06:13:24.480Z,100376.70
2019-05-26T06:15:56.293Z,100371.12
2019-05-26T06:18:27.854Z,100371.30
2019-05-26T06:20:59.379Z,100375.91
2019-05-26T06:23:36.854Z,100377.95
2019-05-26T06:26:07.765Z,100371.61
2019-05-26T06:28:39.256Z,100363.33
2019-05-26T06:31:11.038Z,100366.67
2019-05-26T06:33:42.791Z,100361.53
2019-05-26T06:36:13.465Z,100360.08
2019-05-26T06:38:45.611Z,100355.91
2019-05-26T06:41:32.192Z,100354.36
2019-05-26T06:43:51.304Z,100354.36
2019-05-26T06:46:23.306Z,100353.97
2019-05-26T06:48:54.893Z,100354.80
2019-05-26T06:51:26.386Z,100353.97
2019-05-26T06:53:58.430Z,100360.27
2019-05-26T06:56:33.730Z,100358.95
2019-05-26T06:59:04.600Z,100359.48
2019-05-26T07:01:36.337Z,100349.34
2019-05-26T07:04:08.605Z,100349.34
2019-05-26T07:06:39.669Z,100361.76
2019-05-26T07:09:10.924Z,100365.59
2019-05-26T07:11:55.483Z,100359.48
2019-05-26T07:14:16.300Z,100361.77
2019-05-26T07:16:47.874Z,100360.14
2019-05-26T07:19:19.670Z,100355.73
2019-05-26T07:21:50.422Z,100348.65
2019-05-26T07:24:22.016Z,100355.13
2019-05-26T07:26:53.745Z,100357.81
2019-05-26T07:29:24.612Z,100352.22
2019-05-26T07:31:55.927Z,100351.56
2019-05-26T07:34:27.454Z,100361.86
2019-05-26T07:36:59.710Z,100351.64
2019-05-26T07:39:31.258Z,100352.40
2019-05-26T07:42:10.227Z,100347.42
2019-05-26T07:44:36.371Z,100351.52
2019-05-26T07:47:09.302Z,100351.52
2019-05-26T07:49:40.870Z,100342.80
2019-05-26T07:52:12.426Z,100346.63
2019-05-26T07:54:44.058Z,100346.37
2019-05-26T07:57:15.736Z,100341.56
2019-05-26T07:59:46.497Z,100330.99
2019-05-26T08:02:18.301Z,100339.89
2019-05-26T08:04:49.847Z,100332.36
2019-05-26T08:07:23.130Z,100326.99
2019-05-26T08:09:55.765Z,100332.67
2019-05-26T08:12:30.561Z,100325.76
2019-05-26T08:15:00.770Z,100329.54
2019-05-26T08:17:32.392Z,100323.69
2019-05-26T08:20:04.297Z,100327.33
2019-05-26T08:22:36.343Z,100322.65
2019-05-26T08:25:08.776Z,100316.92
2019-05-26T08:27:39.771Z,100319.91
2019-05-26T08:30:11.866Z,100314.56
2019-05-26T08:32:43.758Z,100311.62
2019-05-26T08:35:14.561Z,100306.68
2019-05-26T08:37:46.532Z,100275.83
2019-05-26T08:40:21.827Z,100288.41
2019-05-26T08:42:53.786Z,100288.41
2019-05-26T08:45:27.365Z,100290.11
2019-05-26T08:47:59.299Z,100282.57
2019-05-26T08:50:34.131Z,100281.92
2019-05-26T08:53:04.757Z,100266.92
2019-05-26T08:55:35.451Z,100266.92
2019-05-26T08:58:07.812Z,100276.80
2019-05-26T09:00:39.590Z,100278.16
2019-05-26T09:03:11.344Z,100265.03
2019-05-26T09:05:43.349Z,100265.03
2019-05-26T09:08:15.065Z,100272.17
2019-05-26T09:10:47.310Z,100270.80
2019-05-26T09:13:18.822Z,100266.34
2019-05-26T09:15:50.433Z,100266.34
2019-05-26T09:18:22.314Z,100268.94
2019-05-26T09:20:53.912Z,100263.36
2019-05-26T09:23:26.009Z,100247.09
2019-05-26T09:25:57.767Z,100257.80
2019-05-26T09:28:28.461Z,100247.31
2019-05-26T09:31:00.305Z,100250.05
2019-05-26T09:33:31.831Z,100237.56
2019-05-26T09:36:03.830Z,100249.55
2019-05-26T09:38:35.602Z,100245.95
2019-05-26T09:41:07.393Z,100230.97
2019-05-26T09:43:39.265Z,100230.97
2019-05-26T09:46:11.310Z,100244.98
2019-05-26T09:48:43.310Z,100243.13
2019-05-26T09:51:15.000Z,100244.98
2019-05-26T09:54:00.884Z,100243.50
2019-05-26T09:56:20.302Z,100239.22
2019-05-26T09:58:52.265Z,100235.43
2019-05-26T10:01:24.078Z,100226.83
2019-05-26T10:03:55.929Z,100217.73
2019-05-26T10:06:27.709Z,100219.00
2019-05-26T10:08:58.496Z,100212.83
2019-05-26T10:11:30.311Z,100222.76
2019-05-26T10:14:01.872Z,100220.98
2019-05-26T10:16:33.769Z,100220.15
2019-05-26T10:19:05.392Z,100213.10
2019-05-26T10:21:37.296Z,100215.00
2019-05-26T10:24:08.909Z,100211.08
2019-05-26T10:26:41.266Z,100209.41
2019-05-26T10:29:13.062Z,100212.27
2019-05-26T10:31:44.759Z,100212.08
2019-05-26T10:34:15.448Z,100205.55
2019-05-26T10:36:54.448Z,100213.10
2019-05-26T10:39:34.853Z,100207.33
2019-05-26T10:42:06.746Z,100204.50
2019-05-26T10:44:38.341Z,100209.96
2019-05-26T10:47:10.070Z,100196.95
2019-05-26T10:49:42.555Z,100198.96
2019-05-26T10:52:13.654Z,100197.06
2019-05-26T10:54:44.442Z,100192.56
2019-05-26T10:57:16.267Z,100192.56
2019-05-26T10:59:48.762Z,100187.84
2019-05-26T11:02:19.616Z,100191.94
2019-05-26T11:04:51.754Z,100191.61
2019-05-26T11:07:26.786Z,100190.77
2019-05-26T11:09:57.068Z,100177.88
2019-05-26T11:12:28.777Z,100166.83
2019-05-26T11:15:00.335Z,100164.81
2019-05-26T11:17:32.053Z,100163.46
2019-05-26T11:20:03.715Z,100157.16
2019-05-26T11:22:34.621Z,100157.45
2019-05-26T11:25:06.857Z,100153.58
2019-05-26T11:27:38.787Z,100153.58
2019-05-26T11:30:11.332Z,100152.09
2019-05-26T11:32:43.390Z,100148.38
2019-05-26T11:35:15.299Z,100142.61
2019-05-26T11:37:46.856Z,100138.44
2019-05-26T11:40:18.794Z,100134.95
2019-05-26T11:42:50.579Z,100132.11
2019-05-26T11:45:22.309Z,100119.51
2019-05-26T11:47:54.302Z,100119.51
2019-05-26T11:50:26.003Z,100124.78
2019-05-26T11:52:57.763Z,100121.30
2019-05-26T11:55:28.696Z,100118.06
2019-05-26T11:57:59.464Z,100107.45
2019-05-26T12:00:31.298Z,100104.95
2019-05-26T12:03:02.876Z,100105.97
2019-05-26T12:05:35.300Z,100104.95
2019-05-26T12:08:06.904Z,100108.52
2019-05-26T12:10:38.719Z,100101.37
2019-05-26T12:13:09.460Z,100100.20
2019-05-26T12:15:41.537Z,100085.90
2019-05-26T12:18:13.474Z,100091.70
2019-05-26T12:20:45.585Z,100089.80
2019-05-26T12:23:17.311Z,100084.64
2019-05-26T12:25:49.303Z,100084.64
2019-05-26T12:28:21.313Z,100089.05
2019-05-26T12:30:52.910Z,100096.64
2019-05-26T12:33:24.798Z,100087.72
2019-05-26T12:35:56.519Z,100077.09
2019-05-26T12:38:28.294Z,100062.80
2019-05-26T12:40:59.974Z,100065.52
2019-05-26T12:43:31.750Z,100071.06
2019-05-26T12:46:03.589Z,100068.75
2019-05-26T12:48:35.268Z,100067.19
2019-05-26T12:51:06.862Z,100067.19
2019-05-26T12:53:38.403Z,100062.56
2019-05-26T12:56:10.091Z,100066.66
2019-05-26T12:58:41.853Z,100062.22
2019-05-26T13:01:13.432Z,100059.49
2019-05-26T13:03:45.361Z,100071.41
2019-05-26T13:06:17.754Z,100065.94
2019-05-26T13:08:49.854Z,100064.23
2019-05-26T13:11:22.879Z,100068.98
2019-05-26T13:13:54.790Z,100047.13
2019-05-26T13:16:26.741Z,100050.80
2019-05-26T13:18:57.504Z,100054.30
2019-05-26T13:21:29.306Z,100052.81
2019-05-26T13:24:01.300Z,100048.60
2019-05-26T13:26:32.846Z,100053.95
2019-05-26T13:29:04.769Z,100042.38
2019-05-26T13:31:35.448Z,100048.48
2019-05-26T13:34:07.416Z,100054.14
2019-05-26T13:36:39.022Z,100038.70
2019-05-26T13:39:11.729Z,100031.56
2019-05-26T13:41:42.423Z,100037.98
2019-05-26T13:44:14.305Z,100041.97
2019-05-26T13:46:45.824Z,100042.08
2019-05-26T13:49:18.321Z,100037.34
2019-05-26T13:51:50.606Z,100030.51
2019-05-26T13:54:22.369Z,100035.66
2019-05-26T13:56:54.029Z,100024.06
2019-05-26T13:59:25.855Z,100026.72
2019-05-26T14:01:57.739Z,100029.53
2019-05-26T14:04:28.451Z,100023.84
2019-05-26T14:07:00.253Z,100024.14
2019-05-26T14:09:32.613Z,100018.48
2019-05-26T14:12:04.386Z,100014.58
2019-05-26T14:14:36.306Z,100014.58
2019-05-26T14:17:08.293Z,100025.92
2019-05-26T14:19:40.298Z,100021.72
2019-05-26T14:22:11.818Z,100009.95
2019-05-26T14:24:53.410Z,100007.95
2019-05-26T14:27:17.522Z,100011.85
2019-05-26T14:29:49.255Z,100008.78
2019-05-26T14:32:20.857Z,99999.75
2019-05-26T14:34:52.794Z,100003.85
2019-05-26T14:37:24.749Z,100006.39
2019-05-26T14:39:55.516Z,99998.61
2019-05-26T14:42:27.306Z,100010.26
2019-05-26T14:44:58.994Z,100002.18
2019-05-26T14:47:30.687Z,99989.89
2019-05-26T14:50:01.506Z,99992.73
2019-05-26T14:52:33.662Z,99990.92
2019-05-26T14:55:04.624Z,99993.34
2019-05-26T14:57:36.770Z,99979.47
2019-05-26T15:00:07.891Z,99979.47
2019-05-26T15:02:39.958Z,99992.28
2019-05-26T15:05:11.791Z,99984.84
2019-05-26T15:07:43.422Z,99985.16
2019-05-26T15:10:15.265Z,99987.24
2019-05-26T15:12:47.311Z,99983.14
2019-05-26T15:15:18.893Z,99982.95
2019-05-26T15:17:50.818Z,99986.22
2019-05-26T15:20:22.715Z,99988.61
2019-05-26T15:22:53.484Z,99979.58
2019-05-26T15:25:25.307Z,99984.84
2019-05-26T15:27:56.872Z,99980.22
2019-05-26T15:30:28.735Z,99973.06
2019-05-26T15:32:59.620Z,99976.32
2019-05-26T15:35:31.342Z,99957.40
2019-05-26T15:38:03.285Z,99957.40
2019-05-26T15:40:34.830Z,99972.34
2019-05-26T15:43:06.593Z,99974.23
2019-05-26T15:45:38.342Z,99960.27
2019-05-26T15:48:10.374Z,99960.27
2019-05-26T15:50:42.059Z,99959.22
2019-05-26T15:53:13.752Z,99959.52
2019-05-26T15:55:45.498Z,99956.18
2019-05-26T15:58:17.355Z,99953.95
2019-05-26T16:00:49.795Z,99945.56
2019-05-26T16:03:21.631Z,99948.30
2019-05-26T16:05:54.069Z,99947.46
2019-05-26T16:08:25.801Z,99947.46
2019-05-26T16:10:57.622Z,99943.89
2019-05-26T16:13:29.822Z,99926.64
2019-05-26T16:16:01.618Z,99926.64
2019-05-26T16:18:33.627Z,99935.70
2019-05-26T16:21:05.353Z,99920.77
2019-05-26T16:23:37.033Z,99920.77
2019-05-26T16:26:08.784Z,99937.06
2019-05-26T16:28:40.428Z,99937.79
2019-05-26T16:31:12.620Z,99939.80
2019-05-26T16:33:43.635Z,99939.18
2019-05-26T16:36:15.788Z,99938.34
2019-05-26T16:38:47.390Z,99938.34
2019-05-26T16:41:19.351Z,99933.61
2019-05-26T16:43:51.312Z,99935.17
2019-05-26T16:46:22.811Z,99933.50
2019-05-26T16:48:54.975Z,99933.80
2019-05-26T16:51:26.867Z,99931.91
2019-05-26T16:53:58.389Z,99931.83
2019-05-26T16:56:30.316Z,99928.45
2019-05-26T16:59:02.306Z,99928.03
2019-05-26T17:01:33.991Z,99926.67
2019-05-26T17:04:05.755Z,99926.98
2019-05-26T17:06:36.447Z,99920.98
2019-05-26T17:09:10.411Z,99922.88
2019-05-26T17:11:42.067Z,99929.41
2019-05-26T17:14:13.783Z,99924.47
2019-05-26T17:16:45.628Z,99934.14
2019-05-26T17:19:17.469Z,99927.09
2019-05-26T17:21:49.410Z,99927.09
2019-05-26T17:24:21.287Z,99926.89
2019-05-26T17:26:52.841Z,99926.55
2019-05-26T17:29:24.630Z,99929.28
2019-05-26T17:31:56.338Z,99924.36
2019-05-26T17:34:28.377Z,99924.36
2019-05-26T17:37:00.255Z,99927.62
2019-05-26T17:39:31.837Z,99925.95
2019-05-26T17:42:03.649Z,99930.77
2019-05-26T17:44:34.442Z,99926.25
2019-05-26T17:47:06.056Z,99922.34
2019-05-26T17:49:37.786Z,99920.80
2019-05-26T17:52:09.452Z,99925.95
2019-05-26T17:54:41.301Z,99914.16
2019-05-26T17:57:12.884Z,99915.02
2019-05-26T17:59:44.722Z,99911.66
2019-05-26T18:02:15.907Z,99914.16
2019-05-26T18:04:47.737Z,99910.59
2019-05-26T18:07:18.473Z,99902.09
2019-05-26T18:09:50.406Z,99905.89
2019-05-26T18:12:22.123Z,99914.69
2019-05-26T18:14:53.758Z,99914.39
2019-05-26T18:17:24.499Z,99909.98
2019-05-26T18:19:56.353Z,99903.77
2019-05-26T18:22:28.295Z,99902.20
2019-05-26T18:25:00.408Z,99898.30
2019-05-26T18:27:32.318Z,99897.28
2019-05-26T18:30:03.925Z,99896.33
2019-05-26T18:32:35.457Z,99891.81
2019-05-26T18:35:07.823Z,99890.45
2019-05-26T18:37:39.778Z,99889.81
2019-05-26T18:40:12.005Z,99889.19
2019-05-26T18:42:43.803Z,99892.65
2019-05-26T18:45:15.777Z,99891.48
2019-05-26T18:48:01.406Z,99885.72
2019-05-26T18:50:20.434Z,99877.52
2019-05-26T18:52:52.311Z,99877.52
2019-05-26T18:55:23.886Z,99881.09
2019-05-26T18:57:55.746Z,99887.80
2019-05-26T19:00:31.066Z,99880.78
2019-05-26T19:02:59.874Z,99886.35
2019-05-26T19:05:35.872Z,99882.56
2019-05-26T19:08:04.808Z,99882.86
2019-05-26T19:10:36.539Z,99879.30
2019-05-26T19:13:10.659Z,99875.31
2019-05-26T19:15:41.760Z,99879.19
2019-05-26T19:18:19.806Z,99879.95
2019-05-26T19:20:46.040Z,99883.81
2019-05-26T19:23:17.745Z,99885.93
2019-05-26T19:25:48.601Z,99882.14
2019-05-26T19:28:21.266Z,99880.67
2019-05-26T19:30:53.018Z,99880.67
2019-05-26T19:33:24.898Z,99882.68
2019-05-26T19:35:56.411Z,99879.39
2019-05-26T19:38:28.313Z,99886.00
2019-05-26T19:40:59.849Z,99878.36
2019-05-26T19:43:31.569Z,99881.38
2019-05-26T19:46:03.793Z,99879.63
2019-05-26T19:48:37.276Z,99879.63
2019-05-26T19:51:09.830Z,99870.70
2019-05-26T19:53:41.738Z,99870.70
2019-05-26T19:56:12.533Z,99870.39
2019-05-26T19:58:44.374Z,99872.26
2019-05-26T20:01:16.054Z,99874.98
2019-05-26T20:03:47.883Z,99873.94
2019-05-26T20:06:19.363Z,99875.62
2019-05-26T20:08:51.769Z,99864.51
2019-05-26T20:11:22.485Z,99870.05
2019-05-26T20:13:54.323Z,99867.12
2019-05-26T20:16:25.851Z,99871.53
2019-05-26T20:18:57.598Z,99879.31
2019-05-26T20:21:29.774Z,99855.66
2019-05-26T20:24:00.490Z,99855.66
2019-05-26T20:26:32.310Z,99867.23
2019-05-26T20:29:14.571Z,99865.96
2019-05-26T20:32:07.491Z,99865.11
2019-05-26T20:34:39.638Z,99861.64
2019-05-26T20:37:12.037Z,99863.13
2019-05-26T20:39:44.312Z,99863.13
2019-05-26T20:42:15.849Z,99860.90
2019-05-26T20:44:47.638Z,99868.89
2019-05-26T20:47:19.782Z,99862.28
2019-05-26T20:49:50.520Z,99862.28
2019-05-26T20:52:22.307Z,99861.12
2019-05-26T20:54:54.330Z,99860.70
2019-05-26T20:57:25.874Z,99862.49
2019-05-26T20:59:57.809Z,99853.02
2019-05-26T21:02:29.513Z,99857.75
2019-05-26T21:05:01.763Z,99859.02
2019-05-26T21:07:32.473Z,99859.02
2019-05-26T21:10:04.325Z,99853.97
2019-05-26T21:12:36.003Z,99855.86
2019-05-26T21:15:08.332Z,99855.44
2019-05-26T21:17:39.882Z,99854.72
2019-05-26T21:20:11.745Z,99853.97
2019-05-26T21:22:42.636Z,99855.03
2019-05-26T21:25:14.664Z,99850.20
2019-05-26T21:27:46.364Z,99838.12
2019-05-26T21:30:18.503Z,99838.12
2019-05-26T21:32:49.457Z,99851.88
2019-05-26T21:35:21.446Z,99852.41
2019-05-26T21:37:53.086Z,99843.58
2019-05-26T21:40:24.756Z,99845.17
2019-05-26T21:42:55.491Z,99843.27
2019-05-26T21:45:27.440Z,99848.09
2019-05-26T21:47:59.057Z,99848.63
2019-05-26T21:50:30.794Z,99844.20
2019-05-26T21:53:02.425Z,99844.20
2019-05-26T21:55:34.045Z,99843.05
2019-05-26T21:58:05.779Z,99837.05
2019-05-26T22:00:41.603Z,99834.84
2019-05-26T22:03:13.360Z,99815.52
2019-05-26T22:05:45.366Z,99815.52
2019-05-26T22:08:17.071Z,99832.86
2019-05-26T22:10:48.755Z,99826.03
2019-05-26T22:13:21.110Z,99825.73
2019-05-26T22:15:53.452Z,99824.67
2019-05-26T22:18:25.766Z,99822.25
2019-05-26T22:20:57.394Z,99820.36
2019-05-26T22:23:29.048Z,99817.64
2019-05-26T22:26:00.742Z,99817.63
2019-05-26T22:28:32.362Z,99814.80
2019-05-26T22:31:04.073Z,99808.80
2019-05-26T22:33:35.847Z,99807.97
2019-05-26T22:36:07.368Z,99807.34
2019-05-26T22:38:39.050Z,99804.00
2019-05-26T22:41:10.837Z,99800.84
2019-05-26T22:43:42.640Z,99799.80
2019-05-26T22:46:14.362Z,99796.42
2019-05-26T22:48:46.051Z,99796.42
2019-05-26T22:51:17.798Z,99803.14
2019-05-26T22:53:49.575Z,99793.27
2019-05-26T22:56:21.308Z,99793.27
2019-05-26T22:58:53.376Z,99793.27
2019-05-26T23:01:25.053Z,99798.00
2019-05-26T23:03:57.313Z,99798.32
2019-05-26T23:06:28.817Z,99796.42
2019-05-26T23:09:00.510Z,99795.28
2019-05-26T23:11:32.318Z,99791.08
2019-05-26T23:14:03.822Z,99791.38
2019-05-26T23:16:35.546Z,99784.03
2019-05-26T23:19:18.705Z,99787.70
2019-05-26T23:21:40.745Z,99784.67
2019-05-26T23:24:12.379Z,99785.93
2019-05-26T23:26:44.066Z,99778.58
2019-05-26T23:29:15.746Z,99782.87
2019-05-26T23:31:46.482Z,99778.77
2019-05-26T23:34:18.299Z,99785.48
2019-05-26T23:36:49.878Z,99786.21
2019-05-26T23:39:22.392Z,99783.48
2019-05-26T23:41:54.067Z,99782.23
2019-05-26T23:44:25.853Z,99778.98
2019-05-26T23:46:57.592Z,99780.53
2019-05-26T23:49:29.259Z,99767.65
2019-05-26T23:52:00.819Z,99767.65
2019-05-26T23:54:32.397Z,99776.77
2019-05-26T23:57:04.312Z,99775.41
2019-05-26T23:59:35.860Z,99774.05
